createdAt,value
2022-09-30T00:00:33.316Z,7.10
2022-09-30T00:01:36.481Z,6.38
2022-09-30T00:02:38.157Z,6.05
2022-09-30T00:03:40.055Z,6.40
2022-09-30T00:04:41.574Z,6.97
2022-09-30T00:05:43.127Z,6.72
2022-09-30T00:06:45.557Z,6.60
2022-09-30T00:07:47.077Z,6.80
2022-09-30T00:08:48.699Z,6.63
2022-09-30T00:09:50.380Z,7.43
2022-09-30T00:11:03.985Z,7.03
2022-09-30T00:12:06.122Z,7.50
2022-09-30T00:13:07.679Z,6.83
2022-09-30T00:14:15.670Z,7.10
2022-09-30T00:15:17.271Z,7.37
2022-09-30T00:16:24.111Z,7.60
2022-09-30T00:17:25.840Z,7.57
2022-09-30T00:18:28.690Z,7.90
2022-09-30T00:19:30.312Z,7.03
2022-09-30T00:20:31.875Z,7.63
2022-09-30T00:21:34.135Z,7.50
2022-09-30T00:22:35.954Z,8.20
2022-09-30T00:23:38.682Z,8.00
2022-09-30T00:24:40.297Z,7.07
2022-09-30T00:25:41.875Z,7.00
2022-09-30T00:26:43.542Z,7.13
2022-09-30T00:27:45.233Z,7.00
2022-09-30T00:28:57.868Z,7.15
2022-09-30T00:29:59.410Z,6.40
2022-09-30T00:31:02.491Z,6.85
2022-09-30T00:32:04.568Z,6.15
2022-09-30T00:33:06.227Z,6.40
2022-09-30T00:34:08.164Z,6.85
2022-09-30T00:35:09.915Z,7.20
2022-09-30T00:36:11.695Z,7.05
2022-09-30T00:37:15.407Z,6.72
2022-09-30T00:38:17.010Z,7.00
2022-09-30T00:39:27.545Z,6.50
2022-09-30T00:40:30.216Z,7.30
2022-09-30T00:41:32.158Z,7.37
2022-09-30T00:42:33.755Z,7.40
2022-09-30T00:43:51.667Z,7.00
2022-09-30T00:44:55.674Z,6.80
2022-09-30T00:45:59.761Z,6.80
2022-09-30T00:47:01.429Z,7.00
2022-09-30T00:48:17.291Z,6.40
2022-09-30T00:49:23.203Z,6.40
2022-09-30T00:50:30.060Z,6.83
2022-09-30T00:51:39.188Z,6.00
2022-09-30T00:52:43.686Z,6.57
2022-09-30T00:53:55.586Z,6.40
2022-09-30T00:54:59.780Z,5.83
2022-09-30T00:56:15.589Z,6.43
2022-09-30T00:57:17.617Z,6.20
2022-09-30T00:58:27.216Z,6.07
2022-09-30T00:59:42.773Z,5.53
2022-09-30T01:00:44.688Z,5.97
2022-09-30T01:01:46.303Z,5.70
2022-09-30T01:02:49.528Z,5.85
2022-09-30T01:04:00.256Z,5.90
2022-09-30T01:05:02.717Z,6.00
2022-09-30T01:06:04.664Z,6.50
2022-09-30T01:07:08.412Z,6.53
2022-09-30T01:08:10.863Z,6.27
2022-09-30T01:09:12.871Z,5.90
2022-09-30T01:10:14.514Z,6.55
2022-09-30T01:11:16.332Z,6.20
2022-09-30T01:12:23.295Z,6.17
2022-09-30T01:13:28.642Z,5.88
2022-09-30T01:14:30.437Z,6.30
2022-09-30T01:16:24.840Z,6.60
2022-09-30T01:17:58.636Z,6.73
2022-09-30T01:19:31.256Z,7.07
2022-09-30T01:21:11.532Z,6.83
2022-09-30T01:22:16.116Z,7.87
2022-09-30T01:23:35.790Z,8.35
2022-09-30T01:24:40.539Z,8.97
2022-09-30T01:26:27.864Z,9.63
2022-09-30T01:27:44.551Z,8.33
2022-09-30T01:29:10.794Z,8.77
2022-09-30T01:30:22.806Z,8.10
2022-09-30T01:31:52.409Z,8.87
2022-09-30T01:33:13.052Z,7.37
2022-09-30T01:34:21.814Z,7.37
2022-09-30T01:35:48.908Z,8.10
2022-09-30T01:37:13.804Z,7.60
2022-09-30T01:38:31.166Z,7.50
2022-09-30T01:40:14.669Z,7.57
2022-09-30T01:41:42.313Z,8.10
2022-09-30T01:43:07.501Z,7.77
2022-09-30T01:44:19.876Z,7.93
2022-09-30T01:45:33.148Z,8.60
2022-09-30T01:46:44.453Z,8.50
2022-09-30T01:47:56.789Z,8.57
2022-09-30T01:49:22.956Z,8.87
2022-09-30T01:50:50.679Z,10.03
2022-09-30T01:51:57.738Z,9.80
2022-09-30T01:53:11.999Z,10.20
2022-09-30T01:54:43.278Z,11.77
2022-09-30T01:55:54.047Z,10.30
2022-09-30T01:57:02.216Z,11.80
2022-09-30T01:58:11.148Z,13.03
2022-09-30T01:59:24.640Z,12.53
2022-09-30T02:00:27.083Z,12.03
2022-09-30T02:01:39.398Z,11.03
2022-09-30T02:02:59.834Z,10.87
2022-09-30T02:04:10.057Z,9.77
2022-09-30T02:05:19.427Z,9.50
2022-09-30T02:06:26.671Z,9.10
2022-09-30T02:07:36.798Z,7.50
2022-09-30T02:08:46.226Z,6.73
2022-09-30T02:10:07.045Z,7.10
2022-09-30T02:11:18.368Z,7.17
2022-09-30T02:12:24.821Z,7.63
2022-09-30T02:13:37.401Z,7.53
2022-09-30T02:14:55.220Z,7.77
2022-09-30T02:16:02.118Z,7.67
2022-09-30T02:17:31.865Z,10.13
2022-09-30T02:18:42.258Z,9.30
2022-09-30T02:19:54.816Z,9.23
2022-09-30T02:21:01.957Z,8.40
2022-09-30T02:22:13.326Z,7.83
2022-09-30T02:24:46.078Z,8.93
2022-09-30T02:25:54.288Z,9.37
2022-09-30T02:27:00.408Z,10.23
2022-09-30T02:28:08.422Z,9.33
2022-09-30T02:29:13.447Z,10.97
2022-09-30T02:30:15.486Z,13.37
2022-09-30T02:31:21.779Z,13.10
2022-09-30T02:32:35.969Z,14.10
2022-09-30T02:33:59.899Z,12.50
2022-09-30T02:35:13.708Z,11.63
2022-09-30T02:36:24.437Z,9.70
2022-09-30T02:37:39.151Z,11.20
2022-09-30T02:38:46.350Z,12.47
2022-09-30T02:40:04.941Z,11.83
2022-09-30T02:41:11.955Z,12.27
2022-09-30T02:42:20.514Z,12.20
2022-09-30T02:43:22.729Z,13.10
2022-09-30T02:44:24.910Z,14.13
2022-09-30T02:45:28.777Z,14.73
2022-09-30T02:46:39.079Z,18.30
2022-09-30T02:47:51.854Z,17.87
2022-09-30T02:49:11.273Z,14.50
2022-09-30T02:50:25.849Z,13.57
2022-09-30T02:51:27.425Z,12.47
2022-09-30T02:52:43.003Z,12.03
2022-09-30T02:54:04.868Z,12.27
2022-09-30T02:55:20.790Z,12.53
2022-09-30T02:56:34.506Z,14.60
2022-09-30T02:57:45.042Z,13.60
2022-09-30T02:58:47.538Z,13.57
2022-09-30T02:59:52.430Z,13.20
2022-09-30T03:00:54.791Z,15.17
2022-09-30T03:01:56.589Z,14.33
2022-09-30T03:03:05.736Z,12.80
2022-09-30T03:04:10.559Z,15.07
2022-09-30T03:05:12.709Z,14.20
2022-09-30T03:06:14.849Z,16.20
2022-09-30T03:07:16.677Z,14.03
2022-09-30T03:08:18.426Z,13.53
2022-09-30T03:09:26.189Z,14.37
2022-09-30T03:10:30.363Z,12.97
2022-09-30T03:11:32.689Z,12.27
2022-09-30T03:12:46.109Z,15.23
2022-09-30T03:13:47.597Z,12.97
2022-09-30T03:15:12.381Z,14.20
2022-09-30T03:16:29.641Z,14.90
2022-09-30T03:17:49.098Z,16.40
2022-09-30T03:19:02.704Z,17.10
2022-09-30T03:20:14.624Z,17.20
2022-09-30T03:21:34.788Z,13.27
2022-09-30T03:23:05.768Z,14.97
2022-09-30T03:24:25.802Z,11.97
2022-09-30T03:25:30.061Z,12.87
2022-09-30T03:26:46.886Z,14.00
2022-09-30T03:28:03.654Z,11.90
2022-09-30T03:29:34.788Z,12.67
2022-09-30T03:30:56.076Z,13.40
2022-09-30T03:32:12.732Z,13.30
2022-09-30T03:33:30.320Z,12.60
2022-09-30T03:34:52.865Z,12.63
2022-09-30T03:35:57.451Z,11.47
2022-09-30T03:37:06.706Z,12.70
2022-09-30T03:38:26.956Z,11.83
2022-09-30T03:39:55.429Z,12.43
2022-09-30T03:41:12.231Z,11.57
2022-09-30T03:42:23.187Z,12.97
2022-09-30T03:43:25.784Z,11.53
2022-09-30T03:44:40.263Z,11.20
2022-09-30T03:45:50.607Z,9.60
2022-09-30T03:46:57.639Z,9.87
2022-09-30T03:48:04.754Z,10.63
2022-09-30T03:49:13.374Z,8.67
2022-09-30T03:50:19.641Z,8.70
2022-09-30T03:51:24.930Z,8.43
2022-09-30T03:52:30.033Z,9.60
2022-09-30T03:53:37.260Z,8.90
2022-09-30T03:54:58.686Z,9.67
2022-09-30T03:56:00.276Z,9.27
2022-09-30T03:57:05.161Z,9.50
2022-09-30T03:58:07.564Z,10.20
2022-09-30T03:59:28.067Z,9.47
2022-09-30T04:00:30.227Z,10.27
2022-09-30T04:01:31.765Z,10.40
2022-09-30T04:02:33.849Z,9.27
2022-09-30T04:03:35.550Z,10.10
2022-09-30T04:04:37.099Z,10.00
2022-09-30T04:05:38.674Z,10.40
2022-09-30T04:06:40.189Z,10.50
2022-09-30T04:07:41.748Z,9.97
2022-09-30T04:08:44.415Z,10.53
2022-09-30T04:09:46.003Z,11.03
2022-09-30T04:10:47.527Z,11.87
2022-09-30T04:11:49.051Z,12.50
2022-09-30T04:12:54.721Z,11.70
2022-09-30T04:13:56.660Z,11.87
2022-09-30T04:14:58.631Z,11.90
2022-09-30T04:16:00.434Z,11.67
2022-09-30T04:17:03.537Z,12.13
2022-09-30T04:18:05.664Z,11.40
2022-09-30T04:19:07.361Z,12.73
2022-09-30T04:20:09.033Z,14.73
2022-09-30T04:21:13.555Z,14.77
2022-09-30T04:22:15.164Z,15.10
2022-09-30T04:23:17.034Z,14.63
2022-09-30T04:24:19.697Z,15.73
2022-09-30T04:25:21.201Z,16.50
2022-09-30T04:26:23.040Z,16.77
2022-09-30T04:27:24.609Z,16.50
2022-09-30T04:28:26.782Z,15.50
2022-09-30T04:29:28.427Z,15.87
2022-09-30T04:30:33.415Z,14.60
2022-09-30T04:31:35.330Z,14.30
2022-09-30T04:32:36.901Z,16.07
2022-09-30T04:33:39.416Z,14.40
2022-09-30T04:34:40.934Z,14.87
2022-09-30T04:35:42.483Z,13.90
2022-09-30T04:36:44.165Z,15.30
2022-09-30T04:37:46.959Z,15.30
2022-09-30T04:38:48.591Z,19.07
2022-09-30T04:39:50.248Z,16.10
2022-09-30T04:40:54.621Z,17.73
2022-09-30T04:41:57.515Z,15.93
2022-09-30T04:42:59.159Z,19.57
2022-09-30T04:44:06.118Z,13.20
2022-09-30T04:45:08.571Z,20.40
2022-09-30T04:46:10.162Z,19.17
2022-09-30T04:47:11.727Z,18.13
2022-09-30T04:48:13.951Z,13.37
2022-09-30T04:49:15.505Z,12.13
2022-09-30T04:50:17.033Z,14.77
2022-09-30T04:51:20.661Z,13.37
2022-09-30T04:52:22.246Z,13.50
2022-09-30T04:53:23.803Z,12.13
2022-09-30T04:54:25.338Z,19.13
2022-09-30T04:55:26.945Z,11.87
2022-09-30T04:56:28.445Z,13.27
2022-09-30T04:57:29.975Z,13.23
2022-09-30T04:58:36.869Z,12.93
2022-09-30T04:59:38.735Z,11.63
2022-09-30T05:00:40.402Z,14.27
2022-09-30T05:01:43.498Z,12.30
2022-09-30T05:02:45.160Z,12.70
2022-09-30T05:03:47.355Z,17.80
2022-09-30T05:04:48.937Z,15.77
2022-09-30T05:05:51.601Z,18.93
2022-09-30T05:06:53.182Z,19.70
2022-09-30T05:08:00.640Z,17.67
2022-09-30T05:09:02.217Z,16.13
2022-09-30T05:10:04.267Z,14.13
2022-09-30T05:11:11.226Z,12.87
2022-09-30T05:12:12.945Z,11.23
2022-09-30T05:13:14.530Z,10.37
2022-09-30T05:14:16.044Z,11.03
2022-09-30T05:15:17.703Z,12.70
2022-09-30T05:16:19.329Z,11.80
2022-09-30T05:17:21.023Z,13.10
2022-09-30T05:18:22.659Z,12.23
2022-09-30T05:19:24.402Z,13.53
2022-09-30T05:20:26.079Z,14.40
2022-09-30T05:21:28.377Z,11.63
2022-09-30T05:22:29.985Z,10.83
2022-09-30T05:23:33.175Z,10.13
2022-09-30T05:24:34.753Z,10.57
2022-09-30T05:25:36.296Z,11.27
2022-09-30T05:26:37.911Z,9.27
2022-09-30T05:27:39.500Z,9.50
2022-09-30T05:28:42.269Z,9.47
2022-09-30T05:29:44.147Z,9.80
2022-09-30T05:30:46.594Z,9.83
2022-09-30T05:31:48.307Z,9.70
2022-09-30T05:32:51.181Z,10.13
2022-09-30T05:33:58.028Z,9.87
2022-09-30T05:35:00.050Z,9.20
2022-09-30T05:36:15.435Z,10.63
2022-09-30T05:37:17.109Z,11.63
2022-09-30T05:38:18.646Z,12.50
2022-09-30T05:39:20.280Z,12.30
2022-09-30T05:40:21.823Z,10.47
2022-09-30T05:41:24.476Z,11.37
2022-09-30T05:42:26.279Z,9.60
2022-09-30T05:43:27.988Z,8.83
2022-09-30T05:44:29.666Z,8.83
2022-09-30T05:45:31.201Z,10.43
2022-09-30T05:46:32.796Z,10.73
2022-09-30T05:47:34.543Z,17.10
2022-09-30T05:48:36.257Z,22.33
2022-09-30T05:49:38.253Z,15.63
2022-09-30T05:50:39.862Z,16.77
2022-09-30T05:51:41.597Z,16.43
2022-09-30T05:52:43.116Z,16.07
2022-09-30T05:53:44.812Z,16.67
2022-09-30T05:54:46.340Z,17.90
2022-09-30T05:55:48.825Z,14.93
2022-09-30T05:56:50.459Z,16.07
2022-09-30T05:57:52.199Z,16.10
2022-09-30T05:58:53.781Z,14.33
2022-09-30T05:59:58.118Z,16.17
2022-09-30T06:01:12.830Z,14.30
2022-09-30T06:02:15.006Z,13.90
2022-09-30T06:03:18.154Z,19.47
2022-09-30T06:04:19.654Z,13.53
2022-09-30T06:05:22.112Z,14.20
2022-09-30T06:06:23.753Z,14.53
2022-09-30T06:07:25.466Z,14.70
2022-09-30T06:08:27.073Z,12.83
2022-09-30T06:09:28.669Z,12.57
2022-09-30T06:10:30.466Z,12.73
2022-09-30T06:11:32.145Z,11.30
2022-09-30T06:12:35.660Z,12.40
2022-09-30T06:13:38.185Z,11.50
2022-09-30T06:14:39.824Z,11.07
2022-09-30T06:15:41.446Z,12.10
2022-09-30T06:16:43.094Z,11.90
2022-09-30T06:17:44.697Z,11.83
2022-09-30T06:18:46.697Z,12.80
2022-09-30T06:19:49.668Z,11.63
2022-09-30T06:20:51.292Z,10.87
2022-09-30T06:21:52.794Z,10.43
2022-09-30T06:22:54.699Z,10.83
2022-09-30T06:23:56.213Z,10.80
2022-09-30T06:24:57.778Z,11.20
2022-09-30T06:25:59.448Z,12.00
2022-09-30T06:27:00.992Z,11.27
2022-09-30T06:28:02.782Z,10.63
2022-09-30T06:29:04.411Z,10.80
2022-09-30T06:30:07.017Z,11.90
2022-09-30T06:31:09.025Z,12.37
2022-09-30T06:32:11.159Z,12.50
2022-09-30T06:33:14.181Z,12.60
2022-09-30T06:34:15.752Z,12.80
2022-09-30T06:35:17.317Z,13.43
2022-09-30T06:36:18.961Z,13.13
2022-09-30T06:37:20.467Z,13.83
2022-09-30T06:38:23.233Z,14.67
2022-09-30T06:39:26.997Z,15.80
2022-09-30T06:40:28.608Z,14.03
2022-09-30T06:41:31.155Z,15.00
2022-09-30T06:42:32.762Z,21.63
2022-09-30T06:43:37.479Z,16.23
2022-09-30T06:44:52.834Z,17.00
2022-09-30T06:46:04.823Z,17.27
2022-09-30T06:47:23.060Z,17.13
2022-09-30T06:48:37.540Z,17.63
2022-09-30T06:49:48.594Z,16.97
2022-09-30T06:51:01.553Z,16.13
2022-09-30T06:52:04.088Z,16.20
2022-09-30T06:53:07.803Z,17.70
2022-09-30T06:54:09.842Z,16.43
2022-09-30T06:55:11.394Z,16.87
2022-09-30T06:56:13.128Z,17.03
2022-09-30T06:57:14.675Z,16.73
2022-09-30T06:58:16.756Z,16.73
2022-09-30T06:59:18.395Z,12.80
2022-09-30T07:00:20.241Z,15.50
2022-09-30T07:01:21.911Z,15.77
2022-09-30T07:02:23.627Z,15.97
2022-09-30T07:03:29.510Z,15.77
2022-09-30T07:04:31.069Z,15.43
2022-09-30T07:05:32.719Z,15.93
2022-09-30T07:06:34.257Z,15.33
2022-09-30T07:07:36.786Z,15.57
2022-09-30T07:08:38.958Z,15.10
2022-09-30T07:09:40.718Z,14.25
2022-09-30T07:10:42.318Z,14.23
2022-09-30T07:11:44.156Z,14.05
2022-09-30T07:12:49.942Z,13.65
2022-09-30T07:13:51.478Z,13.07
2022-09-30T07:14:53.237Z,13.98
2022-09-30T07:15:56.628Z,12.40
2022-09-30T07:16:58.601Z,11.65
2022-09-30T07:18:00.663Z,12.60
2022-09-30T07:19:03.963Z,11.93
2022-09-30T07:20:05.874Z,12.13
2022-09-30T07:21:07.447Z,13.90
2022-09-30T07:22:27.517Z,11.98
2022-09-30T07:23:29.052Z,11.77
2022-09-30T07:24:31.190Z,11.25
2022-09-30T07:25:33.202Z,11.27
2022-09-30T07:26:35.045Z,10.88
2022-09-30T07:27:37.068Z,11.90
2022-09-30T07:28:39.552Z,11.25
2022-09-30T07:30:07.290Z,11.23
2022-09-30T07:31:31.401Z,10.68
2022-09-30T07:32:30.151Z,9.88
2022-09-30T07:33:32.613Z,9.90
2022-09-30T07:34:34.273Z,9.82
2022-09-30T07:35:35.823Z,8.32
2022-09-30T07:36:39.386Z,8.77
2022-09-30T07:37:40.993Z,9.50
2022-09-30T07:38:43.088Z,8.68
2022-09-30T07:39:46.901Z,8.10
2022-09-30T07:41:15.197Z,8.35
2022-09-30T07:42:22.898Z,7.07
2022-09-30T07:43:25.939Z,11.10
2022-09-30T07:44:28.433Z,16.77
2022-09-30T07:45:30.065Z,20.02
2022-09-30T07:46:34.091Z,15.77
2022-09-30T07:47:35.629Z,14.40
2022-09-30T07:48:39.181Z,12.18
2022-09-30T07:49:42.623Z,11.98
2022-09-30T07:50:45.861Z,10.32
2022-09-30T07:51:47.341Z,10.82
2022-09-30T07:52:48.863Z,9.20
2022-09-30T07:53:53.401Z,9.77
2022-09-30T07:54:55.809Z,8.70
2022-09-30T07:55:57.396Z,7.43
2022-09-30T07:57:15.959Z,7.63
2022-09-30T07:58:17.949Z,7.82
2022-09-30T07:59:20.380Z,6.57
2022-09-30T08:00:41.559Z,6.88
2022-09-30T08:01:44.486Z,6.97
2022-09-30T08:02:45.997Z,6.03
2022-09-30T08:03:47.594Z,6.10
2022-09-30T08:04:49.119Z,5.95
2022-09-30T08:05:50.739Z,5.53
2022-09-30T08:06:55.177Z,5.47
2022-09-30T08:07:56.744Z,5.40
2022-09-30T08:08:58.970Z,5.13
2022-09-30T08:10:00.599Z,5.40
2022-09-30T08:11:03.541Z,5.60
2022-09-30T08:12:05.429Z,5.07
2022-09-30T08:13:07.932Z,5.03
2022-09-30T08:14:18.645Z,5.10
2022-09-30T08:15:20.438Z,5.10
2022-09-30T08:16:23.861Z,4.68
2022-09-30T08:17:25.561Z,4.53
2022-09-30T08:18:28.017Z,4.00
2022-09-30T08:19:31.308Z,4.50
2022-09-30T08:20:33.433Z,3.70
2022-09-30T08:21:34.985Z,4.30
2022-09-30T08:22:36.489Z,4.53
2022-09-30T08:23:38.074Z,4.13
2022-09-30T08:24:39.605Z,4.43
2022-09-30T08:25:41.148Z,4.03
2022-09-30T08:26:43.047Z,4.40
2022-09-30T08:27:44.596Z,4.18
2022-09-30T08:28:49.838Z,4.63
2022-09-30T08:29:56.790Z,5.18
2022-09-30T08:31:12.569Z,5.13
2022-09-30T08:32:14.184Z,5.82
2022-09-30T08:33:15.785Z,6.32
2022-09-30T08:34:17.658Z,5.57
2022-09-30T08:35:19.339Z,5.60
2022-09-30T08:36:23.876Z,5.68
2022-09-30T08:37:25.411Z,6.00
2022-09-30T08:38:26.939Z,6.22
2022-09-30T08:39:28.477Z,5.90
2022-09-30T08:40:37.744Z,5.95
2022-09-30T08:41:39.281Z,6.57
2022-09-30T08:42:57.664Z,6.95
2022-09-30T08:44:25.277Z,7.05
2022-09-30T08:45:41.049Z,8.40
2022-09-30T08:47:16.633Z,9.30
2022-09-30T08:48:33.325Z,10.57
2022-09-30T08:49:44.932Z,9.07
2022-09-30T08:50:49.213Z,8.73
2022-09-30T08:51:52.156Z,7.55
2022-09-30T08:53:18.163Z,7.38
2022-09-30T08:54:24.870Z,6.25
2022-09-30T08:55:33.753Z,5.55
2022-09-30T08:56:36.850Z,6.95
2022-09-30T08:57:47.372Z,6.60
2022-09-30T08:58:51.569Z,7.75
2022-09-30T08:59:57.742Z,7.47
2022-09-30T09:01:16.392Z,7.22
2022-09-30T09:02:34.574Z,5.82
2022-09-30T09:03:36.230Z,5.10
2022-09-30T09:06:11.866Z,6.35
2022-09-30T09:07:54.290Z,6.10
2022-09-30T09:09:15.586Z,5.40
2022-09-30T09:10:44.710Z,5.30
2022-09-30T09:11:56.529Z,5.22
2022-09-30T09:13:18.544Z,5.38
2022-09-30T09:14:20.081Z,5.57
2022-09-30T09:15:21.576Z,5.22
2022-09-30T09:16:44.403Z,4.55
2022-09-30T09:19:37.626Z,4.85
2022-09-30T09:20:45.580Z,4.25
2022-09-30T09:22:01.830Z,3.83
2022-09-30T09:23:05.755Z,3.45
2022-09-30T09:24:17.802Z,3.22
2022-09-30T09:25:27.967Z,3.72
2022-09-30T09:26:35.999Z,2.92
2022-09-30T09:27:54.736Z,3.03
2022-09-30T09:29:16.653Z,2.65
2022-09-30T09:30:23.716Z,3.08
2022-09-30T09:31:26.049Z,2.83
2022-09-30T09:32:28.284Z,2.50
2022-09-30T09:33:35.252Z,2.10
2022-09-30T09:34:39.645Z,1.77
2022-09-30T09:35:53.732Z,1.70
2022-09-30T09:37:13.220Z,1.80
2022-09-30T09:38:36.101Z,2.10
2022-09-30T09:39:51.406Z,1.67
2022-09-30T09:41:30.295Z,1.90
2022-09-30T09:42:56.243Z,2.03
2022-09-30T09:44:06.779Z,2.08
2022-09-30T09:45:22.947Z,1.90
2022-09-30T09:46:39.880Z,1.58
2022-09-30T09:47:45.662Z,1.92
2022-09-30T09:48:47.190Z,2.05
2022-09-30T09:50:00.409Z,1.98
2022-09-30T09:51:28.765Z,1.77
2022-09-30T09:52:33.368Z,2.05
2022-09-30T09:53:53.212Z,1.65
2022-09-30T09:54:58.045Z,1.60
2022-09-30T09:56:00.183Z,1.83
2022-09-30T09:57:09.897Z,1.50
2022-09-30T09:58:15.766Z,1.70
2022-09-30T09:59:20.216Z,1.60
2022-09-30T10:00:44.670Z,1.42
2022-09-30T10:01:50.461Z,1.40
2022-09-30T10:03:08.357Z,1.85
2022-09-30T10:04:17.847Z,1.83
2022-09-30T10:05:26.607Z,1.70
2022-09-30T10:07:07.657Z,1.80
2022-09-30T10:08:14.898Z,1.40
2022-09-30T10:09:37.739Z,1.65
2022-09-30T10:10:45.838Z,1.83
2022-09-30T10:11:47.414Z,1.48
2022-09-30T10:12:49.408Z,1.67
2022-09-30T10:13:56.165Z,1.60
2022-09-30T10:15:01.438Z,1.67
2022-09-30T10:16:03.123Z,1.60
2022-09-30T10:17:17.656Z,1.40
2022-09-30T10:18:24.876Z,1.70
2022-09-30T10:19:29.682Z,1.67
2022-09-30T10:20:36.803Z,1.65
2022-09-30T10:21:38.414Z,1.83
2022-09-30T10:22:40.585Z,2.10
2022-09-30T10:23:42.304Z,1.70
2022-09-30T10:24:44.062Z,1.80
2022-09-30T10:26:03.715Z,1.92
2022-09-30T10:27:25.018Z,1.60
2022-09-30T10:28:30.217Z,1.80
2022-09-30T10:29:35.049Z,1.80
2022-09-30T10:30:44.799Z,1.90
2022-09-30T10:31:47.195Z,2.00
2022-09-30T10:32:48.842Z,2.10
2022-09-30T13:55:58.836Z,1.30
2022-09-30T13:57:02.481Z,1.70
2022-09-30T13:58:16.490Z,1.38
2022-09-30T13:59:41.383Z,1.20
2022-09-30T14:01:03.480Z,1.40
2022-09-30T14:02:37.323Z,1.40
2022-09-30T14:03:57.555Z,1.30
2022-09-30T14:05:22.154Z,1.17
2022-09-30T14:06:43.870Z,1.50
2022-09-30T14:08:03.752Z,1.38
2022-09-30T14:09:34.139Z,1.30
2022-09-30T14:11:00.069Z,1.50
2022-09-30T14:12:45.772Z,1.30
2022-09-30T14:14:23.096Z,1.67
2022-09-30T14:16:12.332Z,1.80
2022-09-30T14:17:19.554Z,1.90
2022-09-30T14:18:54.696Z,1.80
2022-09-30T14:20:01.728Z,1.60
2022-09-30T14:21:34.865Z,1.50
2022-09-30T14:22:37.346Z,1.48
2022-09-30T14:23:38.960Z,1.40
2022-09-30T14:24:40.951Z,1.67
2022-09-30T14:25:58.617Z,1.80
2022-09-30T14:27:12.246Z,1.60
2022-09-30T14:28:26.848Z,1.35
2022-09-30T14:29:50.096Z,1.52
2022-09-30T14:31:10.304Z,1.70
2022-09-30T14:32:19.154Z,1.40
2022-09-30T14:33:28.144Z,1.40
2022-09-30T14:34:29.800Z,1.50
2022-09-30T14:35:36.876Z,1.70
2022-09-30T14:36:39.597Z,1.40
2022-09-30T14:37:55.200Z,1.60
2022-09-30T14:39:00.949Z,1.50
2022-09-30T14:40:04.077Z,1.60
2022-09-30T14:41:20.016Z,1.77
2022-09-30T14:42:35.312Z,1.60
2022-09-30T14:43:43.134Z,1.70
2022-09-30T14:44:45.048Z,1.70
2022-09-30T14:45:54.288Z,1.80
2022-09-30T14:47:01.565Z,1.70
2022-09-30T14:48:19.967Z,1.27
2022-09-30T14:49:30.432Z,1.80
2022-09-30T14:50:46.060Z,2.05
2022-09-30T14:51:49.131Z,1.75
2022-09-30T14:52:58.780Z,1.67
2022-09-30T14:54:02.376Z,1.50
2022-09-30T14:55:05.318Z,1.60
2022-09-30T14:56:22.354Z,1.70
2022-09-30T14:57:24.240Z,1.60
2022-09-30T14:58:31.309Z,2.10
2022-09-30T14:59:34.706Z,1.90
2022-09-30T15:00:38.015Z,2.00
2022-09-30T15:01:41.338Z,2.13
2022-09-30T15:02:45.457Z,2.50
2022-09-30T15:03:55.683Z,2.35
2022-09-30T15:05:01.279Z,2.65
2022-09-30T15:06:05.653Z,2.28
2022-09-30T15:07:12.013Z,2.47
2022-09-30T15:08:19.885Z,2.67
2022-09-30T15:09:34.972Z,2.60
2022-09-30T15:10:36.768Z,2.40
2022-09-30T15:11:39.888Z,2.58
2022-09-30T15:12:42.460Z,2.50
2022-09-30T15:13:44.313Z,2.45
2022-09-30T15:15:00.017Z,2.45
2022-09-30T15:16:04.001Z,2.40
2022-09-30T15:17:18.641Z,2.20
2022-09-30T15:18:32.592Z,2.20
2022-09-30T15:19:42.671Z,2.60
2022-09-30T15:20:44.481Z,1.98
2022-09-30T15:21:49.251Z,2.10
2022-09-30T15:22:54.378Z,2.70
2022-09-30T15:23:59.292Z,2.42
2022-09-30T15:25:01.791Z,2.70
2022-09-30T15:26:04.329Z,2.47
2022-09-30T15:27:13.617Z,2.40
2022-09-30T15:28:17.253Z,2.70
2022-09-30T15:29:19.089Z,2.63
2022-09-30T15:30:26.518Z,2.50
2022-09-30T15:31:30.228Z,2.88
2022-09-30T15:32:35.689Z,2.63
2022-09-30T15:33:37.562Z,2.88
2022-09-30T15:34:39.253Z,2.42
2022-09-30T15:35:41.117Z,2.80
2022-09-30T15:36:45.207Z,2.63
2022-09-30T15:37:47.034Z,2.83
2022-09-30T15:38:51.488Z,2.40
2022-09-30T15:40:11.781Z,2.28
2022-09-30T15:41:13.745Z,2.35
2022-09-30T15:42:30.543Z,2.65
2022-09-30T15:43:36.409Z,2.28
2022-09-30T15:44:39.862Z,3.00
2022-09-30T15:45:44.174Z,2.22
2022-09-30T15:47:07.446Z,2.60
2022-09-30T15:48:25.896Z,2.88
2022-09-30T15:49:45.550Z,2.45
2022-09-30T15:50:49.649Z,2.90
2022-09-30T15:51:51.286Z,2.40
2022-09-30T15:52:55.811Z,2.50
2022-09-30T15:54:20.654Z,2.60
2022-09-30T15:55:43.254Z,2.53
2022-09-30T15:56:46.546Z,2.60
2022-09-30T15:57:52.443Z,2.15
2022-09-30T15:59:12.006Z,2.42
2022-09-30T16:00:33.638Z,2.45
2022-09-30T16:01:43.860Z,2.20
2022-09-30T16:02:45.512Z,2.35
2022-09-30T16:03:59.367Z,2.90
2022-09-30T16:05:02.689Z,2.70
2022-09-30T16:06:09.659Z,2.60
2022-09-30T16:07:18.141Z,2.13
2022-09-30T16:08:29.309Z,2.55
2022-09-30T16:09:33.409Z,2.92
2022-09-30T16:10:38.716Z,2.60
2022-09-30T16:11:43.598Z,2.47
2022-09-30T16:12:49.532Z,2.92
2022-09-30T16:13:52.274Z,2.72
2022-09-30T16:15:15.773Z,2.63
2022-09-30T16:16:28.284Z,2.30
2022-09-30T16:17:36.206Z,2.65
2022-09-30T16:18:46.992Z,2.60
2022-09-30T16:19:58.124Z,2.60
2022-09-30T16:21:04.030Z,2.40
2022-09-30T16:22:06.277Z,2.70
2022-09-30T16:23:28.820Z,2.90
2022-09-30T16:24:32.333Z,3.10
2022-09-30T16:25:34.040Z,2.80
2022-09-30T16:26:36.110Z,2.95
2022-09-30T16:27:38.489Z,3.30
2022-09-30T16:28:41.064Z,3.20
2022-09-30T16:29:42.713Z,3.20
2022-09-30T16:30:47.668Z,2.97
2022-09-30T16:31:56.451Z,3.00
2022-09-30T16:33:05.275Z,2.60
2022-09-30T16:34:18.493Z,3.15
2022-09-30T16:35:25.540Z,2.70
2022-09-30T16:36:28.347Z,3.17
2022-09-30T16:37:30.431Z,3.30
2022-09-30T16:38:32.494Z,2.88
2022-09-30T16:39:34.256Z,2.80
2022-09-30T16:40:36.236Z,3.25
2022-09-30T16:41:38.566Z,3.60
2022-09-30T16:42:40.239Z,2.60
2022-09-30T16:43:43.960Z,2.80
2022-09-30T16:44:45.703Z,4.78
2022-09-30T16:45:47.449Z,3.70
2022-09-30T16:46:49.115Z,4.43
2022-09-30T16:47:51.892Z,4.85
2022-09-30T16:48:53.717Z,4.40
2022-09-30T16:49:55.529Z,4.13
2022-09-30T16:51:14.773Z,5.03
2022-09-30T16:52:17.619Z,5.50
2022-09-30T16:53:19.956Z,5.05
2022-09-30T16:54:21.739Z,4.43
2022-09-30T16:55:25.409Z,4.05
2022-09-30T16:56:27.664Z,3.65
2022-09-30T16:57:29.333Z,3.60
2022-09-30T16:58:31.674Z,4.00
2022-09-30T16:59:33.663Z,3.53
2022-09-30T17:00:35.502Z,4.13
2022-09-30T17:01:37.712Z,4.10
2022-09-30T17:02:40.967Z,4.13
2022-09-30T17:03:43.261Z,4.13
2022-09-30T17:04:45.586Z,3.83
2022-09-30T17:05:52.753Z,3.88
2022-09-30T17:06:57.835Z,3.85
2022-09-30T17:08:00.697Z,3.28
2022-09-30T17:09:05.347Z,2.83
2022-09-30T17:10:09.437Z,3.08
2022-09-30T17:11:11.586Z,3.13
2022-09-30T17:12:13.651Z,3.20
2022-09-30T17:13:16.682Z,3.10
2022-09-30T17:14:18.289Z,3.15
2022-09-30T17:15:21.004Z,3.20
2022-09-30T17:16:23.955Z,3.47
2022-09-30T17:17:25.805Z,3.30
2022-09-30T17:18:27.582Z,3.17
2022-09-30T17:19:33.051Z,3.20
2022-09-30T17:20:35.879Z,3.28
2022-09-30T17:21:38.973Z,3.22
2022-09-30T17:22:41.037Z,3.60
2022-09-30T17:23:43.187Z,3.30
2022-09-30T17:24:45.860Z,3.40
2022-09-30T17:25:48.522Z,2.80
2022-09-30T17:26:51.056Z,2.92
2022-09-30T17:27:52.859Z,4.55
2022-09-30T17:29:00.240Z,5.32
2022-09-30T17:30:11.181Z,3.63
2022-09-30T17:31:12.973Z,3.65
2022-09-30T17:32:15.687Z,2.75
2022-09-30T17:33:20.071Z,2.45
2022-09-30T17:34:22.847Z,2.70
2022-09-30T17:35:25.625Z,2.90
2022-09-30T17:36:27.404Z,2.47
2022-09-30T17:37:32.343Z,2.90
2022-09-30T17:38:34.890Z,2.60
2022-09-30T17:39:36.593Z,2.70
2022-09-30T17:40:58.168Z,2.58
2022-09-30T17:42:18.617Z,3.05
2022-09-30T17:43:20.650Z,3.00
2022-09-30T17:44:22.464Z,3.17
2022-09-30T17:45:28.955Z,2.90
2022-09-30T17:46:40.681Z,2.55
2022-09-30T17:47:42.650Z,2.85
2022-09-30T17:48:46.793Z,3.22
2022-09-30T17:49:48.879Z,2.67
2022-09-30T17:50:55.743Z,3.08
2022-09-30T17:51:58.712Z,3.00
2022-09-30T17:53:05.889Z,3.05
2022-09-30T17:54:07.992Z,2.53
2022-09-30T17:55:10.312Z,3.10
2022-09-30T17:56:20.521Z,3.38
2022-09-30T17:57:25.136Z,2.85
2022-09-30T17:58:26.801Z,3.10
2022-09-30T17:59:29.317Z,3.05
2022-09-30T18:00:31.791Z,2.63
2022-09-30T18:01:33.613Z,2.88
2022-09-30T18:02:35.722Z,2.90
2022-09-30T18:03:37.994Z,2.60
2022-09-30T18:04:39.858Z,2.75
2022-09-30T18:05:42.672Z,2.95
2022-09-30T18:06:44.459Z,2.58
2022-09-30T18:07:46.643Z,2.50
2022-09-30T18:08:52.848Z,2.78
2022-09-30T18:09:54.790Z,2.72
2022-09-30T18:10:59.812Z,2.67
2022-09-30T18:12:01.744Z,2.75
2022-09-30T18:13:04.114Z,2.45